Time;durP1;ratioP1;P1;durP2;ratioP2;P2;SDS_P1;SDS_P2;PMS_P1;PMS_P2;Temp;Humidity;BMP_temperature;BMP_pressure;BME280_temperature;BME280_humidity;BME280_pressure;Samples;Min_cycle;Max_cycle;Signal;HPM_P1;HPM_P2
2023/08/07 00:00:09;;;;;;;0.60;0.32;;;;;;;17.02;95.25;98759.63;2057648;28;20035;-69
2023/08/07 00:01:10;;;;;;;1.73;0.40;;;;;;;17.03;95.22;98763.94;2066113;28;20862;-70
2023/08/07 00:02:12;;;;;;;0.68;0.30;;;;;;;17.01;95.29;98760.78;2049677;28;20032;-69
2023/08/07 00:03:18;;;;;;;2.95;0.30;;;;;;;17.02;95.32;98759.63;2049914;28;20855;-69
2023/08/07 00:04:20;;;;;;;1.58;0.38;;;;;;;17.05;95.29;98753.47;2066573;28;20035;-69
2023/08/07 00:05:21;;;;;;;0.85;0.30;;;;;;;17.04;95.16;98758.13;2073776;28;20038;-69
2023/08/07 00:06:23;;;;;;;0.65;0.20;;;;;;;17.00;94.69;98745.66;2066016;28;20053;-69
2023/08/07 00:07:25;;;;;;;2.13;0.25;;;;;;;16.98;94.61;98734.38;2074058;28;20034;-69
2023/08/07 00:08:27;;;;;;;2.42;0.52;;;;;;;16.95;94.56;98743.25;2073899;28;20101;-69
2023/08/07 00:09:28;;;;;;;2.05;0.30;;;;;;;16.94;94.52;98739.75;2049711;28;20039;-70
2023/08/07 00:10:32;;;;;;;0.35;0.20;;;;;;;16.94;94.48;98728.91;2042769;28;20111;-69
2023/08/07 00:11:36;;;;;;;2.03;0.20;;;;;;;16.90;94.17;98726.13;2060329;28;20850;-70
2023/08/07 00:12:38;;;;;;;0.73;0.38;;;;;;;16.93;94.10;98735.47;2066053;28;20024;-70
2023/08/07 00:13:43;;;;;;;0.90;0.30;;;;;;;16.90;94.31;98730.78;2074257;28;20033;-70
2023/08/07 00:14:47;;;;;;;0.73;0.30;;;;;;;16.94;94.25;98730.84;2082117;28;20077;-70
2023/08/07 00:15:52;;;;;;;0.63;0.20;;;;;;;16.92;94.52;98737.38;2081811;28;20042;-70
2023/08/07 00:16:53;;;;;;;3.20;0.52;;;;;;;16.97;94.39;98735.53;2073977;28;20031;-70
2023/08/07 00:17:57;;;;;;;0.52;0.30;;;;;;;16.97;94.56;98732.81;2073929;28;20105;-70
2023/08/07 00:18:59;;;;;;;0.20;0.20;;;;;;;16.99;94.57;98738.66;2074265;28;20743;-71
2023/08/07 00:20:05;;;;;;;1.20;0.40;;;;;;;17.00;94.20;98734.81;2057947;28;20077;-70
2023/08/07 00:21:07;;;;;;;0.43;0.30;;;;;;;16.96;94.07;98740.19;2058244;28;20859;-71
2023/08/07 00:22:09;;;;;;;1.55;0.30;;;;;;;16.98;93.84;98737.88;2057401;28;21240;-70
2023/08/07 00:23:10;;;;;;;1.08;0.20;;;;;;;16.98;94.10;98742.53;2058064;28;20764;-71
2023/08/07 00:24:12;;;;;;;0.52;0.20;;;;;;;17.01;93.91;98758.09;2066065;28;20129;-71
2023/08/07 00:25:14;;;;;;;2.67;1.25;;;;;;;16.90;92.97;98750.56;2073953;28;20029;-71
2023/08/07 00:26:16;;;;;;;0.15;0.15;;;;;;;16.84;92.69;98757.44;2082000;28;20966;-71
2023/08/07 00:27:17;;;;;;;0.30;0.20;;;;;;;16.87;92.67;98764.09;2065595;28;20070;-70
2023/08/07 00:28:19;;;;;;;0.43;0.10;;;;;;;16.92;92.83;98759.09;2066831;28;20798;-71
2023/08/07 00:29:21;;;;;;;1.30;0.30;;;;;;;16.98;92.83;98753.38;2049417;28;20043;-71
2023/08/07 00:30:23;;;;;;;0.15;0.15;;;;;;;17.01;92.58;98755.38;2057961;28;20039;-71
2023/08/07 00:31:25;;;;;;;0.45;0.20;;;;;;;17.02;92.39;98754.22;2065328;28;20037;-71
2023/08/07 00:32:27;;;;;;;1.42;0.82;;;;;;;17.03;92.16;98750.38;2057473;28;20855;-71
2023/08/07 00:33:28;;;;;;;0.47;0.13;;;;;;;17.02;91.79;98746.06;2049529;28;20223;-71
2023/08/07 00:34:30;;;;;;;0.40;0.20;;;;;;;16.96;91.22;98751.03;2065845;28;20839;-71
2023/08/07 00:35:35;;;;;;;0.10;0.08;;;;;;;16.91;90.86;98746.69;2057540;28;20027;-71
2023/08/07 00:36:37;;;;;;;0.28;0.17;;;;;;;16.85;90.59;98745.44;2050467;28;20134;-71
2023/08/07 00:37:39;;;;;;;0.98;0.22;;;;;;;16.81;90.78;98750.03;2057219;28;20102;-71
2023/08/07 00:38:40;;;;;;;0.50;0.40;;;;;;;16.78;90.69;98744.56;2041852;28;20060;-71
2023/08/07 00:39:41;;;;;;;0.70;0.10;;;;;;;16.76;90.85;98747.63;2033973;28;20776;-70
2023/08/07 00:40:43;;;;;;;2.83;0.20;;;;;;;16.76;90.62;98747.63;2049391;28;20102;-71
2023/08/07 00:41:45;;;;;;;1.13;0.25;;;;;;;16.75;90.49;98747.97;2057408;28;20047;-70
2023/08/07 00:42:47;;;;;;;0.57;0.20;;;;;;;16.73;90.06;98759.16;2073700;28;20038;-70
2023/08/07 00:43:49;;;;;;;2.83;0.20;;;;;;;16.69;89.89;98755.63;2065336;28;20076;-69
2023/08/07 00:44:53;;;;;;;4.18;0.20;;;;;;;16.67;89.97;98749.75;2049963;28;20026;-70
2023/08/07 00:45:55;;;;;;;0.50;0.20;;;;;;;16.64;89.73;98755.91;2057570;28;20054;-69
2023/08/07 00:46:59;;;;;;;0.68;0.20;;;;;;;16.63;89.94;98748.94;2065269;28;20071;-70
2023/08/07 00:48:02;;;;;;;2.80;0.10;;;;;;;16.65;90.10;98749.34;2065692;28;20067;-70
2023/08/07 00:49:09;;;;;;;1.00;0.20;;;;;;;16.67;90.03;98752.47;2073555;28;20798;-70
2023/08/07 00:50:11;;;;;;;0.60;0.20;;;;;;;16.67;90.05;98747.81;2066496;28;20019;-69
2023/08/07 00:51:20;;;;;;;0.80;0.20;;;;;;;16.65;89.91;98749.34;2066655;28;20862;-69
2023/08/07 00:52:25;;;;;;;0.88;0.20;;;;;;;16.62;89.64;98747.38;2066356;28;20113;-69
2023/08/07 00:53:27;;;;;;;1.15;0.17;;;;;;;16.58;89.64;98738.38;2058071;28;20090;-69
2023/08/07 00:54:30;;;;;;;0.13;0.10;;;;;;;16.59;89.48;98742.66;2049526;28;20039;-69
2023/08/07 00:55:32;;;;;;;0.75;0.13;;;;;;;16.57;89.74;98742.25;2057854;28;20034;-69
2023/08/07 00:56:33;;;;;;;0.63;0.13;;;;;;;16.59;89.68;98745.38;2065603;28;20034;-69
2023/08/07 00:57:35;;;;;;;0.45;0.10;;;;;;;16.60;89.58;98744.22;2057586;28;20755;-69
2023/08/07 00:58:40;;;;;;;0.30;0.10;;;;;;;16.64;89.58;98743.13;2050032;28;20032;-69
2023/08/07 00:59:44;;;;;;;0.85;0.10;;;;;;;16.64;89.16;98739.63;2066074;28;21302;-69
2023/08/07 01:00:49;;;;;;;1.05;0.10;;;;;;;16.60;88.82;98733.38;2065428;28;20033;-69
2023/08/07 01:01:51;;;;;;;1.25;0.30;;;;;;;16.56;88.72;98727.13;2057928;28;20047;-69
2023/08/07 01:02:53;;;;;;;0.32;0.10;;;;;;;16.51;88.70;98728.19;2057017;28;20105;-70
2023/08/07 01:03:55;;;;;;;0.57;0.10;;;;;;;16.51;88.77;98725.47;2057663;28;20134;-70
2023/08/07 01:04:59;;;;;;;1.17;0.20;;;;;;;16.47;88.19;98719.22;2057491;28;20027;-70
2023/08/07 01:06:05;;;;;;;1.23;0.10;;;;;;;16.44;88.47;98715.28;2057971;28;20034;-70
2023/08/07 01:07:07;;;;;;;0.30;0.20;;;;;;;16.45;88.49;98714.13;2057975;28;20985;-70
2023/08/07 01:08:09;;;;;;;0.43;0.13;;;;;;;16.49;88.45;98716.13;2057434;28;20893;-70
2023/08/07 01:09:13;;;;;;;1.20;0.10;;;;;;;16.51;88.69;98719.28;2057816;28;20036;-71
2023/08/07 01:10:17;;;;;;;1.95;0.10;;;;;;;16.52;88.52;98721.63;2065753;28;20110;-71
2023/08/07 01:11:43;;;;;;;0.30;0.20;;;;;;;16.49;88.25;98721.56;2057306;28;20042;-70
2023/08/07 01:12:57;;;;;;;1.98;0.20;;;;;;;16.44;88.09;98726.16;2067791;28;20845;-70
2023/08/07 01:14:34;;;;;;;0.55;0.10;;;;;;;16.50;88.41;98729.34;2065296;28;20054;-70
2023/08/07 01:15:38;;;;;;;0.30;0.10;;;;;;;16.50;88.11;98728.56;2075418;28;20148;-70
2023/08/07 01:16:51;;;;;;;1.48;0.20;;;;;;;16.53;88.07;98714.28;2090022;28;20029;-70
2023/08/07 01:17:56;;;;;;;0.77;0.10;;;;;;;16.51;87.57;98721.97;2073241;28;20898;-70
2023/08/07 01:18:59;;;;;;;0.22;0.10;;;;;;;16.52;87.51;98715.41;2058377;28;20023;-70
2023/08/07 01:20:05;;;;;;;0.43;0.10;;;;;;;16.54;87.89;98722.03;2066639;28;20035;-70
2023/08/07 01:21:06;;;;;;;0.88;0.20;;;;;;;16.54;87.74;98718.53;2065529;28;20027;-70
2023/08/07 01:22:15;;;;;;;0.45;0.13;;;;;;;16.48;87.24;98715.34;2049731;28;20039;-70
2023/08/07 01:23:17;;;;;;;0.80;0.10;;;;;;;16.44;87.48;98709.88;2060763;28;20806;-70
2023/08/07 01:24:19;;;;;;;0.32;0.20;;;;;;;16.44;87.64;98709.09;2057226;28;20031;-71
2023/08/07 01:25:21;;;;;;;1.30;0.10;;;;;;;16.45;87.44;98700.56;2057847;28;20039;-71
2023/08/07 01:26:23;;;;;;;0.32;0.10;;;;;;;16.43;87.59;98700.19;2073809;28;20179;-70
2023/08/07 01:28:15;;;;;;;1.35;0.20;;;;;;;16.42;87.53;98706.75;2057294;28;20035;-71
2023/08/07 01:29:27;;;;;;;2.40;0.20;;;;;;;16.43;87.64;98696.69;2047239;28;20142;-71
2023/08/07 01:30:38;;;;;;;0.30;0.17;;;;;;;16.38;87.46;98703.19;2042200;28;20083;-70
2023/08/07 01:31:47;;;;;;;1.75;0.20;;;;;;;16.34;87.08;98694.22;2049617;28;20051;-70
2023/08/07 01:33:15;;;;;;;1.02;0.17;;;;;;;16.28;87.07;98690.22;2065484;28;20070;-71
2023/08/07 01:34:19;;;;;;;1.65;0.50;;;;;;;16.31;87.34;98692.22;2068726;28;20034;-71
2023/08/07 01:35:26;;;;;;;0.57;0.30;;;;;;;16.30;87.34;98687.13;2057595;28;20035;-71
2023/08/07 01:36:30;;;;;;;1.23;0.50;;;;;;;16.28;87.58;98678.59;2065950;28;20042;-70
2023/08/07 01:37:34;;;;;;;0.73;0.20;;;;;;;16.26;87.71;98687.09;2057556;28;20743;-71
2023/08/07 01:38:37;;;;;;;1.70;0.20;;;;;;;16.22;87.57;98683.53;2065959;28;20133;-71
2023/08/07 01:39:42;;;;;;;0.43;0.22;;;;;;;16.21;87.81;98684.69;2073291;28;20778;-71
2023/08/07 01:40:48;;;;;;;0.45;0.10;;;;;;;16.20;88.06;98680.41;2066299;28;20186;-71
2023/08/07 01:41:52;;;;;;;1.02;0.20;;;;;;;16.14;88.06;98673.72;2081499;28;20042;-71
2023/08/07 01:42:56;;;;;;;3.75;1.05;;;;;;;16.12;88.06;98667.88;2065119;28;20102;-71
2023/08/07 01:44:00;;;;;;;0.43;0.20;;;;;;;16.11;88.27;98671.72;2057606;28;20082;-70
2023/08/07 01:45:01;;;;;;;0.13;0.10;;;;;;;16.11;88.35;98669.00;2065578;28;20030;-70
2023/08/07 01:46:06;;;;;;;0.93;0.20;;;;;;;16.14;88.56;98663.66;2065545;28;20066;-70
2023/08/07 01:47:08;;;;;;;0.45;0.10;;;;;;;16.17;88.58;98673.78;2049741;28;20142;-70
2023/08/07 01:48:10;;;;;;;1.88;0.38;;;;;;;16.19;88.62;98676.13;2057173;28;20031;-70
2023/08/07 01:49:11;;;;;;;0.45;0.20;;;;;;;16.17;88.49;98678.41;2064720;28;20085;-70
2023/08/07 01:50:15;;;;;;;1.48;0.15;;;;;;;16.16;88.34;98679.56;2049011;28;20922;-70
2023/08/07 01:51:17;;;;;;;0.52;0.25;;;;;;;16.11;88.09;98685.28;2065556;28;20117;-70
2023/08/07 01:52:23;;;;;;;1.38;0.10;;;;;;;16.08;88.28;98680.56;2065572;28;20038;-69
2023/08/07 01:53:25;;;;;;;0.95;0.20;;;;;;;16.03;88.19;98678.19;2049931;28;20095;-70
2023/08/07 01:54:26;;;;;;;1.75;0.57;;;;;;;16.03;88.52;98672.75;2057661;28;20019;-69
2023/08/07 01:55:28;;;;;;;0.93;0.10;;;;;;;15.98;88.73;98680.06;2057170;28;20031;-69
2023/08/07 01:56:30;;;;;;;1.63;0.20;;;;;;;15.95;88.86;98671.81;2065609;28;20166;-69
2023/08/07 01:57:32;;;;;;;0.28;0.15;;;;;;;15.91;89.14;98677.19;2073167;28;20125;-69
2023/08/07 01:58:35;;;;;;;0.30;0.13;;;;;;;15.92;89.09;98670.66;2066438;28;20035;-69
2023/08/07 01:59:36;;;;;;;0.32;0.10;;;;;;;15.94;89.41;98675.69;2083466;28;20846;-70
2023/08/07 02:00:40;;;;;;;0.80;0.30;;;;;;;15.94;89.32;98681.88;2074536;28;20072;-70
2023/08/07 02:01:46;;;;;;;0.40;0.30;;;;;;;15.97;89.71;98674.97;2066991;28;20271;-70
2023/08/07 02:02:47;;;;;;;0.15;0.10;;;;;;;15.93;89.90;98674.91;2075423;28;20125;-71
2023/08/07 02:03:48;;;;;;;1.55;0.20;;;;;;;15.99;89.70;98678.13;2066444;28;20416;-71
2023/08/07 02:04:53;;;;;;;3.30;0.20;;;;;;;15.99;89.80;98676.19;2058872;28;20029;-71
2023/08/07 02:05:57;;;;;;;0.68;0.10;;;;;;;15.99;90.01;98676.19;2058769;28;20036;-71
2023/08/07 02:07:05;;;;;;;0.55;0.20;;;;;;;15.99;89.66;98672.69;2067436;28;20031;-70
2023/08/07 02:08:07;;;;;;;1.35;0.10;;;;;;;15.99;89.71;98676.19;2067595;28;20071;-70
2023/08/07 02:09:09;;;;;;;0.10;0.10;;;;;;;15.93;89.73;98671.44;2066920;28;20921;-69
2023/08/07 02:10:10;;;;;;;0.22;0.20;;;;;;;15.88;89.89;98672.50;2074860;28;20120;-69
2023/08/07 02:11:15;;;;;;;1.08;0.28;;;;;;;15.90;89.87;98675.63;2074700;28;20068;-70
2023/08/07 02:12:16;;;;;;;0.10;0.10;;;;;;;15.89;90.04;98681.41;2066246;28;20082;-70
2023/08/07 02:13:20;;;;;;;0.77;0.20;;;;;;;15.89;90.21;98671.38;2075103;28;20042;-70
2023/08/07 02:14:23;;;;;;;1.42;0.20;;;;;;;15.88;90.10;98674.41;2082796;28;20026;-71
2023/08/07 02:15:29;;;;;;;0.80;0.65;;;;;;;15.88;90.19;98671.72;2074995;28;20042;-70
2023/08/07 02:16:31;;;;;;;0.52;0.10;;;;;;;15.89;90.15;98671.38;2058795;28;20032;-70
2023/08/07 02:17:35;;;;;;;2.00;0.10;;;;;;;15.91;90.06;98666.34;2043591;28;20032;-69
2023/08/07 02:18:37;;;;;;;0.57;0.10;;;;;;;15.92;90.01;98662.50;2059284;28;20145;-69
2023/08/07 02:19:41;;;;;;;1.38;0.10;;;;;;;15.93;90.15;98660.59;2066533;28;20102;-69
2023/08/07 02:20:45;;;;;;;2.35;0.30;;;;;;;15.90;90.07;98653.94;2058877;28;20190;-69
2023/08/07 02:21:47;;;;;;;0.88;0.20;;;;;;;15.92;90.00;98651.69;2058637;28;20164;-69
2023/08/07 02:22:49;;;;;;;0.30;0.20;;;;;;;15.93;90.18;98647.03;2066746;28;20770;-69
2023/08/07 02:23:51;;;;;;;0.93;0.30;;;;;;;15.93;90.10;98657.88;2066757;28;20113;-69
2023/08/07 02:24:52;;;;;;;0.28;0.20;;;;;;;15.96;90.14;98663.34;2066778;28;20035;-69
2023/08/07 02:25:54;;;;;;;0.98;0.20;;;;;;;15.98;90.18;98658.38;2066418;28;20157;-69
2023/08/07 02:26:59;;;;;;;0.50;0.20;;;;;;;15.99;89.96;98651.78;2058830;28;20039;-69
2023/08/07 02:28:03;;;;;;;1.85;0.17;;;;;;;16.02;89.85;98652.22;2067480;28;20931;-69
2023/08/07 02:29:06;;;;;;;0.63;0.22;;;;;;;15.99;89.65;98651.78;2058692;28;20047;-69
2023/08/07 02:30:09;;;;;;;2.78;0.30;;;;;;;15.99;89.73;98651.00;2059018;28;20086;-69
2023/08/07 02:31:14;;;;;;;0.20;0.10;;;;;;;16.01;89.39;98654.13;2074962;28;20041;-69
2023/08/07 02:32:16;;;;;;;0.45;0.20;;;;;;;16.01;89.19;98658.78;2066739;28;20046;-70
2023/08/07 02:33:18;;;;;;;1.88;0.20;;;;;;;15.98;89.12;98661.06;2066643;28;20874;-69
2023/08/07 02:34:19;;;;;;;0.35;0.15;;;;;;;15.92;88.85;98662.50;2074519;28;20033;-70
2023/08/07 02:35:21;;;;;;;0.77;0.20;;;;;;;15.90;88.90;98659.38;2074482;28;20140;-69
2023/08/07 02:36:23;;;;;;;0.25;0.17;;;;;;;15.89;89.20;98673.28;2066399;28;20982;-69
2023/08/07 02:37:25;;;;;;;1.35;0.15;;;;;;;15.90;89.62;98669.44;2066545;28;20105;-69
2023/08/07 02:38:30;;;;;;;0.10;0.05;;;;;;;15.89;89.44;98665.94;2058711;28;20087;-69
2023/08/07 02:39:34;;;;;;;0.20;0.10;;;;;;;15.87;89.52;98679.06;2074994;28;21383;-69
2023/08/07 02:40:39;;;;;;;0.88;0.20;;;;;;;15.86;89.16;98668.59;2066764;28;20035;-69
2023/08/07 02:41:43;;;;;;;1.52;0.30;;;;;;;15.86;89.55;98676.72;2067403;28;20042;-69
2023/08/07 02:42:46;;;;;;;0.52;0.20;;;;;;;15.84;89.60;98671.66;2074791;28;20029;-69
2023/08/07 02:43:48;;;;;;;1.48;0.40;;;;;;;15.85;89.51;98667.78;2058827;28;20043;-70
2023/08/07 02:44:49;;;;;;;0.65;0.10;;;;;;;15.83;89.84;98666.59;2058253;28;20041;-70
2023/08/07 02:45:51;;;;;;;1.67;0.17;;;;;;;15.80;90.00;98670.03;2066566;28;20027;-69
2023/08/07 02:46:55;;;;;;;1.95;0.20;;;;;;;15.80;89.88;98667.31;2074788;28;20022;-69
2023/08/07 02:47:57;;;;;;;0.68;0.10;;;;;;;15.80;89.94;98676.22;2066974;28;20113;-69
2023/08/07 02:49:02;;;;;;;0.10;0.10;;;;;;;15.78;90.27;98678.50;2066756;28;20121;-70
2023/08/07 02:50:05;;;;;;;0.30;0.15;;;;;;;15.77;90.30;98684.28;2059196;28;20778;-70
2023/08/07 02:51:07;;;;;;;0.30;0.15;;;;;;;15.72;90.06;98691.56;2058722;28;20036;-70
2023/08/07 02:52:08;;;;;;;4.03;0.32;;;;;;;15.71;90.32;98691.91;2050382;28;20044;-70
2023/08/07 02:53:13;;;;;;;0.80;0.20;;;;;;;15.71;90.49;98683.78;2059797;28;20031;-70
2023/08/07 02:54:14;;;;;;;2.10;0.35;;;;;;;15.73;90.58;98686.91;2074817;28;20884;-70
2023/08/07 02:55:16;;;;;;;2.30;0.10;;;;;;;15.75;90.50;98690.06;2058182;28;20106;-70
2023/08/07 02:56:18;;;;;;;1.50;0.20;;;;;;;15.75;90.83;98695.47;2050825;28;20040;-70
2023/08/07 02:57:22;;;;;;;1.83;0.22;;;;;;;15.75;90.58;98706.31;2058245;28;20106;-70
2023/08/07 02:58:24;;;;;;;0.20;0.20;;;;;;;15.73;90.41;98697.75;2067188;28;20152;-70
2023/08/07 02:59:28;;;;;;;1.98;0.15;;;;;;;15.73;90.88;98697.75;2058016;28;20047;-70
2023/08/07 03:00:30;;;;;;;0.38;0.10;;;;;;;15.75;90.67;98698.19;2059794;28;20035;-70
2023/08/07 03:01:35;;;;;;;0.30;0.03;;;;;;;15.72;90.92;98688.84;2074548;28;20959;-70
2023/08/07 03:02:36;;;;;;;0.20;0.10;;;;;;;15.71;90.74;98692.69;2066225;28;20026;-70
2023/08/07 03:03:38;;;;;;;0.80;0.20;;;;;;;15.70;90.99;98691.16;2066125;28;20039;-70
2023/08/07 03:04:40;;;;;;;0.30;0.10;;;;;;;15.73;91.09;98687.72;2066556;28;20043;-70
2023/08/07 03:05:51;;;;;;;2.22;0.10;;;;;;;15.75;91.04;98700.91;2066180;28;20030;-70
2023/08/07 03:06:55;;;;;;;0.47;0.15;;;;;;;15.75;91.02;98692.75;2075668;28;20043;-71
2023/08/07 03:08:02;;;;;;;0.15;0.10;;;;;;;15.74;90.90;98696.63;2066422;28;20023;-71
2023/08/07 03:09:03;;;;;;;0.40;0.10;;;;;;;15.72;90.98;98693.47;2068179;28;20027;-70
2023/08/07 03:10:08;;;;;;;0.65;0.10;;;;;;;15.72;90.85;98699.69;2065684;28;20051;-70
2023/08/07 03:11:09;;;;;;;0.15;0.10;;;;;;;15.74;91.11;98696.63;2058696;28;20035;-70
2023/08/07 03:12:11;;;;;;;0.50;0.10;;;;;;;15.74;91.17;98702.03;2057445;28;20031;-70
2023/08/07 03:13:12;;;;;;;0.80;0.10;;;;;;;15.74;91.04;98715.59;2066225;28;20138;-71
2023/08/07 03:14:14;;;;;;;0.10;0.10;;;;;;;15.71;90.57;98708.97;2049960;28;20035;-70
2023/08/07 03:15:16;;;;;;;0.10;0.10;;;;;;;15.72;90.78;98712.44;2050252;28;20028;-70
2023/08/07 03:16:20;;;;;;;0.30;0.10;;;;;;;15.73;90.82;98705.88;2066205;28;20035;-71
2023/08/07 03:17:25;;;;;;;2.15;0.30;;;;;;;15.74;91.13;98710.97;2066862;28;20089;-71
2023/08/07 03:18:29;;;;;;;0.73;0.10;;;;;;;15.77;91.24;98709.47;2065797;28;20047;-71
2023/08/07 03:19:30;;;;;;;0.20;0.20;;;;;;;15.79;91.00;98709.88;2058496;28;20209;-71
2023/08/07 03:20:32;;;;;;;0.00;0.00;;;;;;;15.83;91.01;98713.44;2058325;28;20031;-71
2023/08/07 03:21:34;;;;;;;0.10;0.10;;;;;;;15.85;91.18;98716.56;2066442;28;20751;-71
2023/08/07 03:22:35;;;;;;;0.73;0.20;;;;;;;15.84;90.71;98712.28;2074403;28;20022;-71
2023/08/07 03:23:37;;;;;;;0.10;0.10;;;;;;;15.86;90.84;98709.25;2066348;28;20023;-71
2023/08/07 03:24:41;;;;;;;1.67;0.20;;;;;;;15.87;90.81;98703.44;2058323;28;20089;-71
2023/08/07 03:25:42;;;;;;;0.10;0.10;;;;;;;15.88;90.81;98704.22;2050154;28;20047;-71
2023/08/07 03:26:47;;;;;;;1.55;0.20;;;;;;;15.89;90.34;98705.78;2057984;28;20027;-70
2023/08/07 03:27:49;;;;;;;0.55;0.30;;;;;;;15.92;90.80;98699.66;2069009;28;20107;-70
2023/08/07 03:28:52;;;;;;;1.75;0.13;;;;;;;15.92;90.42;98700.47;2065867;28;20086;-70
2023/08/07 03:29:53;;;;;;;0.93;0.20;;;;;;;15.97;90.54;98699.38;2042727;28;20036;-70
2023/08/07 03:31:01;;;;;;;0.50;0.20;;;;;;;15.99;90.45;98694.38;2051666;28;20845;-70
2023/08/07 03:32:05;;;;;;;0.68;0.10;;;;;;;16.04;90.53;98701.41;2058572;28;20947;-70
2023/08/07 03:33:08;;;;;;;1.55;0.20;;;;;;;16.05;90.16;98692.16;2066656;28;20178;-70
2023/08/07 03:34:11;;;;;;;0.82;0.10;;;;;;;16.06;90.04;98685.59;2066164;28;20019;-71
2023/08/07 03:35:13;;;;;;;2.05;0.15;;;;;;;16.05;89.72;98681.31;2058426;28;20094;-69
2023/08/07 03:36:18;;;;;;;0.20;0.13;;;;;;;16.07;89.83;98681.72;2058533;28;20138;-69
2023/08/07 03:37:20;;;;;;;0.50;0.10;;;;;;;16.10;90.03;98683.72;2066610;28;20125;-69
2023/08/07 03:38:21;;;;;;;0.40;0.15;;;;;;;16.10;89.65;98689.91;2074134;28;20057;-69
2023/08/07 03:39:26;;;;;;;0.73;0.20;;;;;;;16.13;89.37;98694.63;2058119;28;20098;-69
2023/08/07 03:40:28;;;;;;;0.75;0.20;;;;;;;16.10;88.87;98683.72;2058741;28;20917;-70
2023/08/07 03:41:30;;;;;;;0.10;0.10;;;;;;;16.09;88.64;98693.00;2057519;28;20739;-69
2023/08/07 03:42:32;;;;;;;0.65;0.15;;;;;;;16.05;88.43;98697.59;2058550;28;20023;-69
2023/08/07 03:43:35;;;;;;;1.70;0.30;;;;;;;16.05;88.44;98705.72;2057785;28;20042;-69
2023/08/07 03:44:43;;;;;;;1.67;0.20;;;;;;;16.01;88.36;98697.50;2051066;28;20175;-70
2023/08/07 03:45:55;;;;;;;0.22;0.17;;;;;;;16.00;88.18;98704.06;2051848;28;20035;-69
2023/08/07 03:46:57;;;;;;;;;;;;;;;15.98;88.28;98704.44;2061292;28;20074;-69
2023/08/07 03:47:59;;;;;;;2.58;0.35;;;;;;;15.96;88.28;98709.44;2058333;28;19989;-69
2023/08/07 03:49:00;;;;;;;0.32;0.10;;;;;;;15.93;88.07;98712.84;2049769;28;20516;-69
2023/08/07 03:50:06;;;;;;;0.10;0.10;;;;;;;15.96;88.53;98720.28;2066645;28;20133;-70
2023/08/07 03:51:14;;;;;;;0.22;0.10;;;;;;;15.98;88.15;98731.56;2066767;28;20050;-69
2023/08/07 03:52:22;;;;;;;0.43;0.15;;;;;;;15.97;88.46;98735.38;2060261;28;20034;-69
2023/08/07 03:53:25;;;;;;;0.20;0.20;;;;;;;15.98;88.33;98742.41;2066808;28;20121;-69
2023/08/07 03:54:29;;;;;;;0.35;0.20;;;;;;;15.99;88.19;98754.78;2066623;28;20054;-69
2023/08/07 03:55:34;;;;;;;1.98;0.20;;;;;;;15.93;87.83;98755.44;2074510;28;20074;-69
2023/08/07 03:56:37;;;;;;;0.30;0.10;;;;;;;15.90;87.92;98734.47;2073954;28;20042;-69
2023/08/07 03:57:42;;;;;;;0.20;0.10;;;;;;;15.89;88.11;98749.97;2076001;28;20023;-69
2023/08/07 03:58:44;;;;;;;0.43;0.20;;;;;;;15.90;87.99;98746.09;2073791;28;20045;-69
2023/08/07 03:59:48;;;;;;;0.30;0.20;;;;;;;15.94;88.12;98736.09;2066534;28;21208;-69
2023/08/07 04:00:52;;;;;;;2.28;0.60;;;;;;;15.98;88.40;98731.56;2066030;28;20043;-69
2023/08/07 04:01:54;;;;;;;0.40;0.20;;;;;;;15.98;88.30;98723.41;2066753;28;20163;-70
2023/08/07 04:02:58;;;;;;;0.63;0.40;;;;;;;15.94;87.92;98730.69;2074377;28;20885;-69
2023/08/07 04:04:03;;;;;;;1.30;0.22;;;;;;;15.97;87.87;98723.75;2058492;28;20141;-69
2023/08/07 04:05:06;;;;;;;0.17;0.17;;;;;;;16.03;87.96;98725.03;2058323;28;20165;-69
2023/08/07 04:06:10;;;;;;;1.50;0.20;;;;;;;16.07;88.19;98733.22;2066236;28;20034;-69
2023/08/07 04:07:12;;;;;;;0.90;0.20;;;;;;;16.05;88.26;98728.19;2066165;28;20058;-69
2023/08/07 04:08:13;;;;;;;1.50;0.10;;;;;;;15.99;87.88;98733.09;2065995;28;20149;-69
2023/08/07 04:09:16;;;;;;;0.17;0.10;;;;;;;15.99;87.99;98735.81;2065403;28;20058;-70
2023/08/07 04:10:18;;;;;;;0.90;0.22;;;;;;;15.88;88.01;98718.56;2066534;28;20058;-69
2023/08/07 04:11:20;;;;;;;1.85;0.30;;;;;;;15.89;87.95;98733.69;2073741;28;20026;-69
2023/08/07 04:12:22;;;;;;;1.65;0.40;;;;;;;15.90;88.36;98734.47;2064779;28;20039;-69
2023/08/07 04:13:24;;;;;;;0.10;0.10;;;;;;;15.91;88.85;98728.69;2065830;28;20078;-69
2023/08/07 04:14:26;;;;;;;0.10;0.10;;;;;;;15.89;88.56;98717.44;2065665;28;20068;-69
2023/08/07 04:15:27;;;;;;;0.10;0.10;;;;;;;15.88;88.68;98715.84;2049218;28;20036;-69
2023/08/07 04:16:34;;;;;;;1.00;0.10;;;;;;;15.86;88.57;98715.44;2042661;28;20036;-69
2023/08/07 04:17:36;;;;;;;1.75;0.15;;;;;;;15.88;88.74;98720.50;2051492;28;20142;-69
2023/08/07 04:18:37;;;;;;;0.13;0.13;;;;;;;15.88;88.78;98720.50;2066320;28;20034;-69
2023/08/07 04:19:46;;;;;;;1.55;0.20;;;;;;;15.90;88.64;98723.63;2057416;28;20141;-69
2023/08/07 04:20:53;;;;;;;0.20;0.10;;;;;;;15.90;88.90;98713.56;2070048;28;20019;-69
2023/08/07 04:21:55;;;;;;;0.47;0.20;;;;;;;15.95;88.38;98715.19;2080975;28;20113;-70
2023/08/07 04:22:57;;;;;;;0.55;0.10;;;;;;;15.99;88.57;98699.81;2074176;28;20022;-70
2023/08/07 04:24:00;;;;;;;0.20;0.15;;;;;;;16.01;88.74;98702.91;2065727;28;20046;-70
2023/08/07 04:25:07;;;;;;;3.20;0.20;;;;;;;16.06;88.69;98696.44;2058890;28;20039;-70
2023/08/07 04:26:11;;;;;;;1.00;0.40;;;;;;;16.09;88.40;98693.78;2067577;28;20077;-69
2023/08/07 04:27:15;;;;;;;0.73;0.10;;;;;;;16.14;88.05;98711.66;2066399;28;20093;-70
2023/08/07 04:28:18;;;;;;;1.80;0.10;;;;;;;16.18;88.03;98701.69;2066050;28;20038;-70
2023/08/07 04:29:22;;;;;;;0.30;0.20;;;;;;;16.25;88.06;98715.34;2057547;28;20039;-69
2023/08/07 04:30:24;;;;;;;0.20;0.20;;;;;;;16.24;87.44;98705.66;2058458;28;20095;-71
2023/08/07 04:31:31;;;;;;;1.65;0.10;;;;;;;16.29;87.26;98720.84;2065940;28;20043;-71
2023/08/07 04:32:32;;;;;;;0.10;0.10;;;;;;;16.33;86.98;98708.94;2057838;28;20086;-69
2023/08/07 04:33:34;;;;;;;0.15;0.10;;;;;;;16.40;87.17;98710.97;2065736;28;20090;-69
2023/08/07 04:34:39;;;;;;;0.28;0.17;;;;;;;16.42;86.92;98712.19;2065630;28;20154;-70
2023/08/07 04:35:41;;;;;;;0.03;0.03;;;;;;;16.48;86.76;98709.94;2058258;28;20799;-69
2023/08/07 04:36:42;;;;;;;0.32;0.17;;;;;;;16.55;86.69;98718.19;2057860;28;21266;-70
2023/08/07 04:37:47;;;;;;;0.40;0.10;;;;;;;16.58;86.33;98719.38;2049998;28;20791;-69
2023/08/07 04:38:48;;;;;;;0.00;0.00;;;;;;;16.57;86.02;98732.16;2048873;28;20032;-69
2023/08/07 04:39:50;;;;;;;0.10;0.10;;;;;;;16.54;85.48;98719.31;2049233;28;20917;-69
2023/08/07 04:40:52;;;;;;;0.38;0.38;;;;;;;16.51;85.43;98725.47;2066005;28;20031;-70
2023/08/07 04:41:54;;;;;;;0.52;0.20;;;;;;;16.52;85.60;98728.97;2077616;28;20046;-71
2023/08/07 04:42:55;;;;;;;1.00;0.17;;;;;;;16.50;85.13;98720.44;2057887;28;20146;-71
2023/08/07 04:43:58;;;;;;;0.13;0.13;;;;;;;16.51;84.52;98728.19;2073734;28;20964;-70
2023/08/07 04:45:02;;;;;;;0.30;0.10;;;;;;;16.57;84.55;98725.97;2074359;28;20093;-71
2023/08/07 04:46:07;;;;;;;0.68;0.20;;;;;;;16.61;84.67;98724.88;2073960;28;20213;-72
2023/08/07 04:47:12;;;;;;;0.82;0.20;;;;;;;16.62;84.27;98736.53;2073917;28;20034;-71
2023/08/07 04:48:13;;;;;;;0.13;0.10;;;;;;;16.68;84.57;98729.66;2065407;28;20043;-72
2023/08/07 04:49:16;;;;;;;1.15;0.10;;;;;;;16.74;84.20;98736.34;2057665;28;20172;-71
2023/08/07 04:50:22;;;;;;;0.15;0.10;;;;;;;16.73;83.46;98732.03;2057636;28;20027;-70
2023/08/07 04:51:31;;;;;;;0.85;0.10;;;;;;;16.80;83.78;98734.91;2066764;28;20218;-71
2023/08/07 04:52:36;;;;;;;5.68;0.40;;;;;;;16.82;83.16;98737.25;2073996;28;20030;-71
2023/08/07 04:53:39;;;;;;;0.95;0.30;;;;;;;16.80;82.60;98731.38;2081749;28;20033;-71
2023/08/07 04:54:40;;;;;;;0.22;0.15;;;;;;;16.79;82.58;98740.69;2065201;28;20100;-71
2023/08/07 04:55:43;;;;;;;0.20;0.20;;;;;;;16.77;82.02;98738.34;2057619;28;20048;-71
2023/08/07 04:56:45;;;;;;;0.47;0.20;;;;;;;16.78;81.87;98748.03;2065514;28;20042;-71
2023/08/07 04:57:47;;;;;;;0.40;0.10;;;;;;;16.78;82.16;98761.63;2065925;28;20018;-71
2023/08/07 04:58:48;;;;;;;0.17;0.10;;;;;;;16.74;82.31;98760.75;2073493;28;20042;-71
2023/08/07 04:59:54;;;;;;;1.35;0.13;;;;;;;16.74;82.27;98754.53;2057459;28;20081;-71